createdAt,value
2023-05-22T00:00:16.957Z,565.00
2023-05-22T00:01:16.983Z,566.00
2023-05-22T00:02:17.028Z,565.00
2023-05-22T00:03:17.054Z,566.00
2023-05-22T00:04:17.000Z,564.00
2023-05-22T00:05:17.157Z,562.00
2023-05-22T00:06:17.043Z,562.00
2023-05-22T00:07:17.046Z,564.00
2023-05-22T00:08:17.059Z,565.00
2023-05-22T00:09:17.101Z,564.00
2023-05-22T00:10:17.108Z,565.00
2023-05-22T00:11:17.144Z,567.00
2023-05-22T00:12:17.120Z,568.00
2023-05-22T00:13:17.125Z,569.00
2023-05-22T00:14:17.142Z,570.00
2023-05-22T00:15:17.150Z,570.00
2023-05-22T00:16:17.151Z,569.00
2023-05-22T00:17:17.161Z,568.00
2023-05-22T00:18:17.197Z,568.00
2023-05-22T00:19:18.064Z,568.00
2023-05-22T00:20:17.337Z,570.00
2023-05-22T00:21:17.274Z,571.00
2023-05-22T00:22:17.274Z,571.00
2023-05-22T00:23:17.314Z,570.00
2023-05-22T00:24:17.303Z,569.00
2023-05-22T00:25:17.303Z,570.00
2023-05-22T00:26:17.326Z,569.00
2023-05-22T00:27:17.291Z,570.00
2023-05-22T00:28:17.310Z,569.00
2023-05-22T00:29:17.319Z,567.00
2023-05-22T00:30:17.313Z,570.00
2023-05-22T00:31:17.333Z,571.00
2023-05-22T00:32:17.327Z,572.00
2023-05-22T00:33:17.360Z,575.00
2023-05-22T00:34:17.400Z,575.00
2023-05-22T00:35:17.379Z,573.00
2023-05-22T00:36:17.407Z,572.00
2023-05-22T00:37:17.415Z,572.00
2023-05-22T00:38:17.399Z,570.00
2023-05-22T00:39:17.354Z,573.00
2023-05-22T00:40:17.395Z,572.00
2023-05-22T00:41:17.438Z,574.00
2023-05-22T00:42:17.436Z,574.00
2023-05-22T00:43:17.479Z,574.00
2023-05-22T00:44:17.442Z,576.00
2023-05-22T00:45:17.448Z,573.00
2023-05-22T00:46:17.487Z,573.00
2023-05-22T00:47:17.481Z,577.00
2023-05-22T00:48:17.526Z,578.00
2023-05-22T00:49:17.516Z,579.00
2023-05-22T00:50:17.526Z,580.00
2023-05-22T00:51:17.570Z,581.00
2023-05-22T00:52:17.618Z,580.00
2023-05-22T00:53:17.621Z,578.00
2023-05-22T00:54:17.605Z,577.00
2023-05-22T00:55:17.633Z,579.00
2023-05-22T00:56:17.615Z,577.00
2023-05-22T00:57:17.617Z,580.00
2023-05-22T00:58:17.648Z,585.00
2023-05-22T00:59:17.648Z,586.00
2023-05-22T01:00:17.665Z,588.00
2023-05-22T01:01:17.650Z,592.00
2023-05-22T01:02:17.681Z,592.00
2023-05-22T01:03:17.736Z,591.00
2023-05-22T01:04:17.917Z,591.00
2023-05-22T01:05:17.705Z,590.00
2023-05-22T01:06:17.725Z,587.00
2023-05-22T01:07:17.719Z,587.00
2023-05-22T01:08:17.751Z,591.00
2023-05-22T01:09:17.771Z,594.00
2023-05-22T01:10:17.764Z,595.00
2023-05-22T01:11:17.802Z,597.00
2023-05-22T01:12:17.838Z,601.00
2023-05-22T01:13:17.845Z,601.00
2023-05-22T01:14:17.889Z,600.00
2023-05-22T01:15:17.901Z,600.00
2023-05-22T01:16:17.998Z,599.00
2023-05-22T01:17:18.000Z,600.00
2023-05-22T01:18:18.068Z,601.00
2023-05-22T01:19:18.178Z,601.00
2023-05-22T01:20:18.112Z,602.00
2023-05-22T01:21:18.189Z,603.00
2023-05-22T01:22:18.279Z,603.00
2023-05-22T01:23:18.290Z,606.00
2023-05-22T01:24:18.316Z,606.00
2023-05-22T01:25:18.364Z,606.00
2023-05-22T01:26:18.423Z,606.00
2023-05-22T01:27:18.495Z,607.00
2023-05-22T01:28:18.566Z,605.00
2023-05-22T01:29:18.651Z,603.00
2023-05-22T01:30:18.685Z,602.00
2023-05-22T01:31:18.750Z,600.00
2023-05-22T01:32:18.791Z,599.00
2023-05-22T01:33:18.980Z,595.00
2023-05-22T01:34:18.882Z,594.00
2023-05-22T01:35:18.975Z,594.00
2023-05-22T01:36:19.003Z,594.00
2023-05-22T01:37:19.037Z,596.00
2023-05-22T01:38:19.067Z,595.00
2023-05-22T01:39:19.149Z,594.00
2023-05-22T01:40:19.185Z,594.00
2023-05-22T01:41:19.351Z,595.00
2023-05-22T01:42:19.309Z,596.00
2023-05-22T01:43:19.291Z,596.00
2023-05-22T01:44:19.348Z,599.00
2023-05-22T01:45:19.375Z,598.00
2023-05-22T01:46:19.433Z,599.00
2023-05-22T01:47:19.461Z,598.00
2023-05-22T01:48:19.474Z,599.00
2023-05-22T01:49:19.510Z,599.00
2023-05-22T01:50:19.573Z,600.00
2023-05-22T01:51:19.565Z,599.00
2023-05-22T01:52:19.613Z,597.00
2023-05-22T01:53:19.621Z,595.00
2023-05-22T01:54:19.613Z,595.00
2023-05-22T01:55:19.630Z,594.00
2023-05-22T01:56:19.631Z,592.00
2023-05-22T01:57:19.659Z,594.00
2023-05-22T01:58:19.642Z,593.00
2023-05-22T01:59:19.677Z,595.00
2023-05-22T02:00:19.662Z,596.00
2023-05-22T02:01:19.762Z,593.00
2023-05-22T02:02:19.801Z,591.00
2023-05-22T02:03:19.939Z,588.00
2023-05-22T02:04:19.770Z,588.00
2023-05-22T02:05:19.813Z,589.00
2023-05-22T02:06:19.804Z,591.00
2023-05-22T02:07:19.815Z,592.00
2023-05-22T02:08:19.876Z,593.00
2023-05-22T02:09:19.887Z,594.00
2023-05-22T02:10:19.944Z,592.00
2023-05-22T02:11:19.936Z,591.00
2023-05-22T02:12:19.946Z,591.00
2023-05-22T02:13:19.948Z,587.00
2023-05-22T02:14:20.007Z,587.00
2023-05-22T02:15:20.009Z,591.00
2023-05-22T02:16:20.033Z,591.00
2023-05-22T02:17:20.029Z,594.00
2023-05-22T02:18:20.100Z,596.00
2023-05-22T02:19:20.149Z,597.00
2023-05-22T02:20:20.117Z,601.00
2023-05-22T02:21:20.112Z,598.00
2023-05-22T02:22:20.131Z,599.00
2023-05-22T02:23:20.154Z,600.00
2023-05-22T02:24:20.185Z,601.00
2023-05-22T02:25:20.208Z,600.00
2023-05-22T02:26:20.171Z,602.00
2023-05-22T02:27:20.178Z,598.00
2023-05-22T02:28:20.202Z,593.00
2023-05-22T02:29:20.212Z,592.00
2023-05-22T02:30:20.232Z,591.00
2023-05-22T02:31:20.283Z,592.00
2023-05-22T02:32:20.230Z,593.00
2023-05-22T02:33:20.235Z,593.00
2023-05-22T02:34:20.244Z,595.00
2023-05-22T02:35:20.261Z,597.00
2023-05-22T02:36:20.272Z,596.00
2023-05-22T02:37:20.268Z,595.00
2023-05-22T02:38:20.288Z,598.00
2023-05-22T02:39:20.281Z,597.00
2023-05-22T02:40:20.298Z,600.00
2023-05-22T02:41:20.296Z,598.00
2023-05-22T02:42:20.290Z,596.00
2023-05-22T02:43:20.315Z,596.00
2023-05-22T02:44:20.345Z,597.00
2023-05-22T02:45:20.331Z,597.00
2023-05-22T02:46:20.404Z,598.00
2023-05-22T02:47:20.384Z,596.00
2023-05-22T02:48:20.393Z,594.00
2023-05-22T02:49:20.404Z,593.00
2023-05-22T02:50:20.407Z,591.00
2023-05-22T02:51:20.420Z,590.00
2023-05-22T02:52:20.454Z,591.00
2023-05-22T02:53:20.445Z,592.00
2023-05-22T02:54:20.456Z,590.00
2023-05-22T02:55:20.474Z,591.00
2023-05-22T02:56:20.465Z,591.00
2023-05-22T02:57:20.474Z,590.00
2023-05-22T02:58:20.540Z,591.00
2023-05-22T02:59:20.516Z,592.00
2023-05-22T03:00:20.518Z,592.00
2023-05-22T03:01:20.611Z,590.00
2023-05-22T03:02:20.565Z,590.00
2023-05-22T03:03:20.681Z,589.00
2023-05-22T03:04:20.560Z,588.00
2023-05-22T03:05:20.580Z,588.00
2023-05-22T03:06:20.603Z,587.00
2023-05-22T03:07:20.618Z,590.00
2023-05-22T03:08:20.599Z,587.00
2023-05-22T03:09:20.656Z,586.00
2023-05-22T03:10:20.635Z,585.00
2023-05-22T03:11:20.685Z,585.00
2023-05-22T03:12:20.649Z,586.00
2023-05-22T03:13:20.688Z,589.00
2023-05-22T03:14:20.700Z,591.00
2023-05-22T03:15:20.725Z,594.00
2023-05-22T03:16:20.718Z,594.00
2023-05-22T03:17:20.738Z,594.00
2023-05-22T03:18:20.796Z,593.00
2023-05-22T03:19:20.838Z,591.00
2023-05-22T03:20:20.773Z,590.00
2023-05-22T03:21:20.805Z,590.00
2023-05-22T03:22:20.792Z,590.00
2023-05-22T03:23:20.808Z,592.00
2023-05-22T03:24:20.829Z,593.00
2023-05-22T03:25:20.825Z,594.00
2023-05-22T03:26:20.859Z,594.00
2023-05-22T03:27:20.879Z,594.00
2023-05-22T03:28:20.883Z,596.00
2023-05-22T03:29:20.966Z,598.00
2023-05-22T03:30:20.929Z,598.00
2023-05-22T03:31:20.941Z,599.00
2023-05-22T03:32:20.993Z,597.00
2023-05-22T03:33:21.013Z,598.00
2023-05-22T03:34:21.019Z,600.00
2023-05-22T03:35:21.052Z,599.00
2023-05-22T03:36:21.079Z,597.00
2023-05-22T03:37:21.085Z,594.00
2023-05-22T03:38:21.100Z,595.00
2023-05-22T03:39:21.121Z,594.00
2023-05-22T03:40:21.149Z,593.00
2023-05-22T03:41:21.174Z,596.00
2023-05-22T03:42:21.181Z,596.00
2023-05-22T03:43:21.176Z,597.00
2023-05-22T03:44:21.232Z,598.00
2023-05-22T03:45:21.243Z,597.00
2023-05-22T03:46:21.305Z,598.00
2023-05-22T03:47:21.261Z,598.00
2023-05-22T03:48:21.261Z,598.00
2023-05-22T03:49:21.306Z,600.00
2023-05-22T03:50:21.342Z,600.00
2023-05-22T03:51:21.421Z,602.00
2023-05-22T03:52:21.354Z,602.00
2023-05-22T03:53:21.388Z,602.00
2023-05-22T03:54:21.439Z,600.00
2023-05-22T03:55:21.438Z,599.00
2023-05-22T03:56:21.444Z,597.00
2023-05-22T03:57:21.509Z,596.00
2023-05-22T03:58:21.482Z,598.00
2023-05-22T03:59:21.534Z,598.00
2023-05-22T04:00:21.560Z,602.00
2023-05-22T04:01:21.566Z,601.00
2023-05-22T04:02:21.714Z,599.00
2023-05-22T04:03:21.735Z,598.00
2023-05-22T04:04:21.630Z,596.00
2023-05-22T04:05:21.699Z,594.00
2023-05-22T04:06:21.758Z,594.00
2023-05-22T04:07:21.724Z,592.00
2023-05-22T04:08:21.804Z,592.00
2023-05-22T04:09:21.791Z,592.00
2023-05-22T04:10:21.807Z,595.00
2023-05-22T04:11:21.828Z,596.00
2023-05-22T04:12:21.890Z,596.00
2023-05-22T04:13:21.907Z,597.00
2023-05-22T04:14:21.948Z,597.00
2023-05-22T04:15:22.002Z,598.00
2023-05-22T04:16:22.130Z,598.00
2023-05-22T04:17:22.112Z,598.00
2023-05-22T04:18:22.103Z,599.00
2023-05-22T04:19:22.645Z,600.00
2023-05-22T04:20:22.134Z,603.00
2023-05-22T04:21:22.144Z,602.00
2023-05-22T04:22:22.213Z,604.00
2023-05-22T04:23:22.188Z,604.00
2023-05-22T04:24:22.227Z,605.00
2023-05-22T04:25:22.294Z,604.00
2023-05-22T04:26:22.294Z,605.00
2023-05-22T04:27:22.315Z,604.00
2023-05-22T04:28:22.422Z,603.00
2023-05-22T04:29:22.415Z,603.00
2023-05-22T04:30:22.421Z,603.00
2023-05-22T04:31:22.515Z,601.00
2023-05-22T04:32:22.574Z,602.00
2023-05-22T04:33:22.522Z,603.00
2023-05-22T04:34:22.544Z,603.00
2023-05-22T04:35:22.580Z,605.00
2023-05-22T04:36:22.650Z,605.00
2023-05-22T04:37:22.633Z,603.00
2023-05-22T04:38:22.664Z,604.00
2023-05-22T04:39:22.712Z,603.00
2023-05-22T04:40:22.730Z,604.00
2023-05-22T04:41:22.901Z,603.00
2023-05-22T04:42:22.790Z,602.00
2023-05-22T04:43:22.814Z,603.00
2023-05-22T04:44:22.863Z,602.00
2023-05-22T04:45:22.886Z,604.00
2023-05-22T04:46:22.929Z,601.00
2023-05-22T04:47:22.979Z,599.00
2023-05-22T04:48:23.004Z,601.00
2023-05-22T04:49:23.027Z,599.00
2023-05-22T04:50:23.066Z,598.00
2023-05-22T04:51:23.088Z,599.00
2023-05-22T04:52:23.130Z,599.00
2023-05-22T04:53:23.135Z,598.00
2023-05-22T04:54:23.179Z,596.00
2023-05-22T04:55:23.203Z,594.00
2023-05-22T04:56:35.650Z,596.00
2023-05-22T04:57:24.252Z,593.00
2023-05-22T04:58:23.253Z,593.00
2023-05-22T04:59:23.215Z,593.00
2023-05-22T05:00:23.244Z,592.00
2023-05-22T05:01:32.902Z,593.00
2023-05-22T05:02:23.209Z,593.00
2023-05-22T05:03:23.225Z,593.00
2023-05-22T05:04:23.248Z,591.00
2023-05-22T05:05:23.195Z,590.00
2023-05-22T05:06:23.170Z,590.00
2023-05-22T05:07:23.175Z,591.00
2023-05-22T05:08:23.189Z,592.00
2023-05-22T05:09:23.180Z,589.00
2023-05-22T05:10:23.160Z,589.00
2023-05-22T05:11:23.121Z,588.00
2023-05-22T05:12:23.142Z,590.00
2023-05-22T05:13:23.135Z,589.00
2023-05-22T05:14:23.133Z,588.00
2023-05-22T05:15:23.132Z,589.00
2023-05-22T05:16:23.110Z,590.00
2023-05-22T05:17:23.109Z,593.00
2023-05-22T05:18:23.080Z,594.00
2023-05-22T05:19:23.145Z,594.00
2023-05-22T05:20:23.045Z,595.00
2023-05-22T05:21:23.070Z,597.00
2023-05-22T05:22:23.144Z,595.00
2023-05-22T05:23:23.043Z,596.00
2023-05-22T05:24:23.042Z,596.00
2023-05-22T05:25:23.059Z,597.00
2023-05-22T05:26:23.031Z,597.00
2023-05-22T05:27:22.988Z,598.00
2023-05-22T05:28:23.025Z,600.00
2023-05-22T05:29:23.010Z,601.00
2023-05-22T05:30:23.014Z,602.00
2023-05-22T05:31:23.050Z,604.00
2023-05-22T05:32:23.157Z,601.00
2023-05-22T05:33:23.071Z,602.00
2023-05-22T05:34:23.158Z,649.00
2023-05-22T05:35:23.114Z,647.00
2023-05-22T05:36:23.126Z,654.00
2023-05-22T05:37:23.184Z,663.00
2023-05-22T05:38:23.208Z,683.00
2023-05-22T05:39:23.679Z,698.00
2023-05-22T05:40:23.245Z,755.00
2023-05-22T05:41:23.369Z,778.00
2023-05-22T05:42:23.305Z,828.00
2023-05-22T05:43:23.320Z,838.00
2023-05-22T05:44:23.403Z,896.00
2023-05-22T05:45:23.400Z,945.00
2023-05-22T05:46:30.581Z,951.00
2023-05-22T05:47:23.491Z,966.00
2023-05-22T05:48:23.390Z,985.00
2023-05-22T05:49:23.714Z,1038.00
2023-05-22T05:50:23.436Z,1056.00
2023-05-22T05:51:23.418Z,1108.00
2023-05-22T05:52:23.425Z,1124.00
2023-05-22T05:53:23.391Z,1131.00
2023-05-22T05:54:23.729Z,1140.00
2023-05-22T05:55:23.398Z,1152.00
2023-05-22T05:56:24.380Z,1166.00
2023-05-22T05:57:23.349Z,1186.00
2023-05-22T05:58:24.250Z,1200.00
2023-05-22T05:59:24.326Z,1212.00
2023-05-22T06:00:23.425Z,1220.00
2023-05-22T06:01:23.361Z,1232.00
2023-05-22T06:02:23.478Z,1249.00
2023-05-22T06:03:23.393Z,1259.00
2023-05-22T06:04:23.298Z,1271.00
2023-05-22T06:05:23.377Z,1297.00
2023-05-22T06:06:23.312Z,1319.00
2023-05-22T06:07:23.299Z,1323.00
2023-05-22T06:08:23.295Z,1334.00
2023-05-22T06:09:23.298Z,1345.00
2023-05-22T06:10:23.277Z,1347.00
2023-05-22T06:11:23.230Z,1355.00
2023-05-22T06:12:23.413Z,1365.00
2023-05-22T06:13:23.222Z,1384.00
2023-05-22T06:14:23.269Z,1408.00
2023-05-22T06:15:23.271Z,1418.00
2023-05-22T06:16:23.246Z,1423.00
2023-05-22T06:17:23.293Z,1441.00
2023-05-22T06:18:23.194Z,1451.00
2023-05-22T06:19:23.261Z,1458.00
2023-05-22T06:20:23.216Z,1465.00
2023-05-22T06:21:23.202Z,1471.00
2023-05-22T06:22:23.184Z,1472.00
2023-05-22T06:23:23.195Z,1480.00
2023-05-22T06:24:23.727Z,1483.00
2023-05-22T06:25:23.348Z,1492.00
2023-05-22T06:26:23.336Z,1501.00
2023-05-22T06:27:23.425Z,1511.00
2023-05-22T06:28:23.446Z,1517.00
2023-05-22T06:29:23.744Z,1530.00
2023-05-22T06:30:38.911Z,1562.00
2023-05-22T06:31:24.539Z,1561.00
2023-05-22T06:32:23.631Z,1563.00
2023-05-22T06:33:23.660Z,1573.00
2023-05-22T06:34:23.815Z,1586.00
2023-05-22T06:35:23.681Z,1589.00
2023-05-22T06:36:23.498Z,1602.00
2023-05-22T06:37:23.512Z,1615.00
2023-05-22T06:38:23.531Z,1596.00
2023-05-22T06:39:23.541Z,1587.00
2023-05-22T06:40:24.268Z,1572.00
2023-05-22T06:41:23.481Z,1563.00
2023-05-22T06:42:23.490Z,1564.00
2023-05-22T06:43:23.510Z,1573.00
2023-05-22T06:44:23.761Z,1583.00
2023-05-22T06:45:23.579Z,1593.00
2023-05-22T06:46:25.808Z,1599.00
2023-05-22T06:47:23.756Z,1607.00
2023-05-22T06:48:23.810Z,1608.00
2023-05-22T06:49:24.250Z,1607.00
2023-05-22T06:50:23.846Z,1609.00
2023-05-22T06:51:23.884Z,1627.00
2023-05-22T06:52:23.932Z,1636.00
2023-05-22T06:53:23.970Z,1625.00
2023-05-22T06:54:23.968Z,1617.00
2023-05-22T06:55:24.055Z,1588.00
2023-05-22T06:56:24.085Z,1532.00
2023-05-22T06:57:24.137Z,1512.00
2023-05-22T06:58:25.127Z,1423.00
2023-05-22T06:59:24.283Z,1363.00
2023-05-22T07:00:24.086Z,1319.00
2023-05-22T07:01:24.139Z,1341.00
2023-05-22T07:02:24.335Z,1265.00
2023-05-22T07:03:24.055Z,1256.00
2023-05-22T07:04:24.222Z,1226.00
2023-05-22T07:05:24.053Z,1227.00
2023-05-22T07:06:24.140Z,1223.00
2023-05-22T07:07:24.033Z,1249.00
2023-05-22T07:08:23.990Z,1246.00
2023-05-22T07:09:24.043Z,1127.00
2023-05-22T07:10:24.059Z,1148.00
2023-05-22T07:11:24.121Z,1148.00
2023-05-22T07:12:24.116Z,1139.00
2023-05-22T07:13:24.225Z,1106.00
2023-05-22T07:14:24.280Z,1109.00
2023-05-22T07:15:24.809Z,1092.00
2023-05-22T07:16:24.362Z,1098.00
2023-05-22T07:17:24.456Z,1098.00
2023-05-22T07:18:24.413Z,1097.00
2023-05-22T07:19:24.577Z,1098.00
2023-05-22T07:20:24.522Z,1087.00
2023-05-22T07:21:24.554Z,1080.00
2023-05-22T07:22:24.649Z,1064.00
2023-05-22T07:23:26.233Z,1065.00
2023-05-22T07:24:24.788Z,1077.00
2023-05-22T07:25:24.663Z,1089.00
2023-05-22T07:26:24.839Z,1102.00
2023-05-22T07:27:24.745Z,1112.00
2023-05-22T07:28:24.744Z,1129.00
2023-05-22T07:29:25.101Z,1145.00
2023-05-22T07:30:24.806Z,1156.00
2023-05-22T07:31:24.886Z,1154.00
2023-05-22T07:32:24.873Z,1163.00
2023-05-22T07:33:24.821Z,1176.00
2023-05-22T07:34:24.899Z,1186.00
2023-05-22T07:35:24.857Z,1295.00
2023-05-22T07:36:24.839Z,1315.00
2023-05-22T07:37:24.850Z,1223.00
2023-05-22T07:38:24.863Z,992.00
2023-05-22T07:39:24.866Z,1118.00
2023-05-22T07:40:26.543Z,964.00
2023-05-22T07:41:24.914Z,968.00
2023-05-22T07:42:24.937Z,1012.00
2023-05-22T07:43:24.989Z,1018.00
2023-05-22T07:44:25.008Z,1068.00
2023-05-22T07:45:25.241Z,1069.00
2023-05-22T07:46:25.100Z,1068.00
2023-05-22T07:47:25.167Z,998.00
2023-05-22T07:48:25.130Z,1009.00
2023-05-22T07:49:25.151Z,1019.00
2023-05-22T07:50:25.630Z,1030.00
2023-05-22T07:51:25.140Z,1032.00
2023-05-22T07:52:25.199Z,1028.00
2023-05-22T07:53:25.292Z,1016.00
2023-05-22T07:54:25.247Z,1015.00
2023-05-22T07:55:25.278Z,1009.00
2023-05-22T07:56:25.247Z,993.00
2023-05-22T07:57:25.269Z,1001.00
2023-05-22T07:58:25.337Z,1026.00
2023-05-22T07:59:25.337Z,1030.00
2023-05-22T08:00:25.787Z,1036.00
2023-05-22T08:01:25.288Z,1041.00
2023-05-22T08:02:25.395Z,1038.00
2023-05-22T08:03:25.419Z,1037.00
2023-05-22T08:04:25.445Z,1035.00
2023-05-22T08:05:25.800Z,1042.00
2023-05-22T08:06:25.433Z,1039.00
2023-05-22T08:07:31.394Z,1030.00
2023-05-22T08:08:25.687Z,1027.00
2023-05-22T08:09:25.314Z,1034.00
2023-05-22T08:10:28.018Z,1075.00
2023-05-22T08:11:25.329Z,1101.00
2023-05-22T08:12:25.300Z,1112.00
2023-05-22T08:13:25.310Z,1121.00
2023-05-22T08:14:25.268Z,1155.00
2023-05-22T08:15:27.536Z,1164.00
2023-05-22T08:16:25.405Z,1174.00
2023-05-22T08:17:25.268Z,1196.00
2023-05-22T08:18:25.294Z,1232.00
2023-05-22T08:19:25.426Z,1264.00
2023-05-22T08:20:25.913Z,1280.00
2023-05-22T08:21:25.532Z,1287.00
2023-05-22T08:22:25.508Z,1288.00
2023-05-22T08:23:25.593Z,1289.00
2023-05-22T08:24:25.619Z,1297.00
2023-05-22T08:25:25.626Z,1308.00
2023-05-22T08:26:25.690Z,1333.00
2023-05-22T08:27:25.759Z,1351.00
2023-05-22T08:28:25.766Z,1365.00
2023-05-22T08:29:25.810Z,1391.00
2023-05-22T08:30:25.839Z,1425.00
2023-05-22T08:31:25.866Z,1447.00
2023-05-22T08:32:25.911Z,1441.00
2023-05-22T08:33:25.842Z,1440.00
2023-05-22T08:34:25.865Z,1454.00
2023-05-22T08:35:26.313Z,1474.00
2023-05-22T08:36:25.809Z,1371.00
2023-05-22T08:37:25.860Z,1355.00
2023-05-22T08:38:26.086Z,1351.00
2023-05-22T08:39:25.919Z,1327.00
2023-05-22T08:40:26.010Z,1013.00
2023-05-22T08:41:26.347Z,932.00
2023-05-22T08:42:26.130Z,821.00
2023-05-22T08:43:26.188Z,817.00
2023-05-22T08:44:26.269Z,788.00
2023-05-22T08:45:26.192Z,788.00
2023-05-22T08:46:26.248Z,804.00
2023-05-22T08:47:26.225Z,796.00
2023-05-22T08:48:26.262Z,775.00
2023-05-22T08:49:26.371Z,831.00
2023-05-22T08:50:26.776Z,834.00
2023-05-22T08:51:26.539Z,837.00
2023-05-22T08:52:26.529Z,834.00
2023-05-22T08:53:26.529Z,893.00
2023-05-22T08:54:26.541Z,948.00
2023-05-22T08:55:27.233Z,970.00
2023-05-22T08:56:28.656Z,984.00
2023-05-22T08:57:26.589Z,993.00
2023-05-22T08:58:26.595Z,1028.00
2023-05-22T08:59:26.567Z,1052.00
2023-05-22T09:00:26.549Z,1059.00
2023-05-22T09:01:26.596Z,1083.00
2023-05-22T09:02:26.589Z,1100.00
2023-05-22T09:03:26.563Z,1115.00
2023-05-22T09:04:26.534Z,1121.00
2023-05-22T09:05:26.523Z,1119.00
2023-05-22T09:06:26.537Z,1119.00
2023-05-22T09:07:26.511Z,1128.00
2023-05-22T09:08:26.485Z,1139.00
2023-05-22T09:09:26.500Z,1136.00
2023-05-22T09:10:26.486Z,1155.00
2023-05-22T09:11:26.836Z,1162.00
2023-05-22T09:12:26.484Z,1173.00
2023-05-22T09:13:26.482Z,1231.00
2023-05-22T09:14:26.505Z,1245.00
2023-05-22T09:15:26.564Z,1247.00
2023-05-22T09:16:26.496Z,1249.00
2023-05-22T09:17:26.572Z,1247.00
2023-05-22T09:18:26.470Z,1240.00
2023-05-22T09:19:27.359Z,1237.00
2023-05-22T09:20:26.448Z,1236.00
2023-05-22T09:21:30.083Z,1231.00
2023-05-22T09:22:26.406Z,1238.00
2023-05-22T09:23:26.387Z,1244.00
2023-05-22T09:24:26.403Z,1266.00
2023-05-22T09:25:26.416Z,1272.00
2023-05-22T09:26:26.443Z,1283.00
2023-05-22T09:27:26.392Z,1301.00
2023-05-22T09:28:26.374Z,1318.00
2023-05-22T09:29:26.377Z,1306.00
2023-05-22T09:30:26.382Z,1307.00
2023-05-22T09:31:26.463Z,1285.00
2023-05-22T09:32:26.349Z,1288.00
2023-05-22T09:33:26.385Z,1312.00
2023-05-22T09:34:26.367Z,1315.00
2023-05-22T09:35:26.327Z,1327.00
2023-05-22T09:36:26.312Z,1328.00
2023-05-22T09:37:26.304Z,1332.00
2023-05-22T09:38:26.296Z,1336.00
2023-05-22T09:39:26.309Z,1341.00
2023-05-22T09:40:26.321Z,1344.00
2023-05-22T09:41:26.312Z,1232.00
2023-05-22T09:42:26.293Z,993.00
2023-05-22T09:43:26.297Z,875.00
2023-05-22T09:44:26.259Z,1042.00
2023-05-22T09:45:26.260Z,1051.00
2023-05-22T09:46:26.354Z,1051.00
2023-05-22T09:47:26.359Z,1113.00
2023-05-22T09:48:26.263Z,1126.00
2023-05-22T09:49:26.298Z,1134.00
2023-05-22T09:50:26.214Z,1137.00
2023-05-22T09:51:26.347Z,1144.00
2023-05-22T09:52:26.228Z,1160.00
2023-05-22T09:53:26.240Z,1209.00
2023-05-22T09:54:26.332Z,1242.00
2023-05-22T09:55:26.275Z,1257.00
2023-05-22T09:56:38.013Z,1247.00
2023-05-22T09:57:27.357Z,1246.00
2023-05-22T09:58:26.451Z,1251.00
2023-05-22T09:59:26.390Z,1258.00
2023-05-22T10:00:26.439Z,1260.00
2023-05-22T10:01:26.476Z,1276.00
2023-05-22T10:02:26.552Z,1278.00
2023-05-22T10:03:26.525Z,1269.00
2023-05-22T10:04:26.577Z,1258.00
2023-05-22T10:05:26.576Z,1203.00
2023-05-22T10:06:26.576Z,1238.00
2023-05-22T10:07:26.636Z,1236.00
2023-05-22T10:08:26.633Z,1234.00
2023-05-22T10:09:26.634Z,1249.00
2023-05-22T10:10:26.651Z,1253.00
2023-05-22T10:11:26.687Z,1261.00
2023-05-22T10:12:26.739Z,1266.00
2023-05-22T10:13:26.716Z,1277.00
2023-05-22T10:14:27.816Z,1305.00
2023-05-22T10:15:26.873Z,1319.00
2023-05-22T10:16:26.928Z,1326.00
2023-05-22T10:17:26.847Z,1325.00
2023-05-22T10:18:26.833Z,1323.00
2023-05-22T10:19:27.080Z,1270.00
2023-05-22T10:20:26.917Z,1273.00
2023-05-22T10:21:26.895Z,1277.00
2023-05-22T10:22:27.858Z,1275.00
2023-05-22T10:23:26.865Z,1254.00
2023-05-22T10:24:26.930Z,1244.00
2023-05-22T10:25:26.948Z,1259.00
2023-05-22T10:26:27.359Z,1266.00
2023-05-22T10:27:26.949Z,1277.00
2023-05-22T10:28:26.962Z,1281.00
2023-05-22T10:29:26.962Z,1284.00
2023-05-22T10:30:27.040Z,1280.00
2023-05-22T10:31:26.994Z,1291.00
2023-05-22T10:32:27.019Z,1268.00
2023-05-22T10:33:27.068Z,1271.00
2023-05-22T10:34:27.112Z,1292.00
2023-05-22T10:35:27.049Z,1295.00
2023-05-22T10:36:27.479Z,1293.00
2023-05-22T10:37:27.069Z,1268.00
2023-05-22T10:38:27.100Z,1251.00
2023-05-22T10:39:27.057Z,1258.00
2023-05-22T10:40:27.090Z,1288.00
2023-05-22T10:41:27.396Z,1226.00
2023-05-22T10:42:27.086Z,1131.00
2023-05-22T10:43:27.093Z,1125.00
2023-05-22T10:44:27.159Z,1113.00
2023-05-22T10:45:27.162Z,1092.00
2023-05-22T10:46:27.316Z,1067.00
2023-05-22T10:47:27.363Z,1090.00
2023-05-22T10:48:27.198Z,1084.00
2023-05-22T10:49:27.154Z,1040.00
2023-05-22T10:50:27.175Z,1035.00
2023-05-22T10:51:27.233Z,974.00
2023-05-22T10:52:27.242Z,979.00
2023-05-22T10:53:27.268Z,980.00
2023-05-22T10:54:27.304Z,975.00
2023-05-22T10:55:27.274Z,993.00
2023-05-22T10:56:27.321Z,983.00
2023-05-22T10:57:27.397Z,976.00
2023-05-22T10:58:27.396Z,967.00
2023-05-22T10:59:27.359Z,967.00
2023-05-22T11:00:27.359Z,967.00
2023-05-22T11:01:27.494Z,958.00
2023-05-22T11:02:28.031Z,943.00
2023-05-22T11:03:27.505Z,924.00
2023-05-22T11:04:27.493Z,914.00
2023-05-22T11:05:27.513Z,911.00
2023-05-22T11:06:27.508Z,899.00
2023-05-22T11:07:27.554Z,875.00
2023-05-22T11:08:27.561Z,851.00
2023-05-22T11:09:27.637Z,854.00
2023-05-22T11:10:27.653Z,850.00
2023-05-22T11:11:27.666Z,820.00
2023-05-22T11:12:27.898Z,836.00
2023-05-22T11:13:29.086Z,837.00
2023-05-22T11:14:27.793Z,828.00
2023-05-22T11:15:27.757Z,786.00
2023-05-22T11:16:27.798Z,778.00
2023-05-22T11:17:27.957Z,790.00
2023-05-22T11:18:27.894Z,796.00
2023-05-22T11:19:27.882Z,793.00
2023-05-22T11:20:27.922Z,784.00
2023-05-22T11:21:27.886Z,774.00
2023-05-22T11:22:28.367Z,773.00
2023-05-22T11:23:27.995Z,762.00
2023-05-22T11:24:28.047Z,743.00
2023-05-22T11:25:28.010Z,726.00
2023-05-22T11:26:28.243Z,728.00
2023-05-22T11:27:28.415Z,731.00
2023-05-22T11:28:28.147Z,738.00
2023-05-22T11:29:28.184Z,777.00
2023-05-22T11:30:28.255Z,789.00
2023-05-22T11:31:28.382Z,699.00
2023-05-22T11:32:28.448Z,670.00
2023-05-22T11:33:28.400Z,669.00
2023-05-22T11:34:28.545Z,665.00
2023-05-22T11:35:28.471Z,674.00
2023-05-22T11:36:28.503Z,671.00
2023-05-22T11:37:28.541Z,670.00
2023-05-22T11:38:28.896Z,671.00
2023-05-22T11:39:28.603Z,665.00
2023-05-22T11:40:28.612Z,662.00
2023-05-22T11:41:28.980Z,662.00
2023-05-22T11:42:28.684Z,661.00
2023-05-22T11:43:28.739Z,661.00
2023-05-22T11:44:28.866Z,661.00
2023-05-22T11:45:28.824Z,663.00
2023-05-22T11:46:28.892Z,661.00
2023-05-22T11:47:28.962Z,657.00
2023-05-22T11:48:28.919Z,658.00
2023-05-22T11:49:28.993Z,659.00
2023-05-22T11:50:41.689Z,657.00
2023-05-22T11:51:30.007Z,655.00
2023-05-22T11:52:29.001Z,655.00
2023-05-22T11:53:29.017Z,657.00
2023-05-22T11:54:28.974Z,657.00
2023-05-22T11:55:28.997Z,655.00
2023-05-22T11:56:28.977Z,649.00
2023-05-22T11:57:28.962Z,647.00
2023-05-22T11:58:28.960Z,646.00
2023-05-22T11:59:28.968Z,648.00
2023-05-22T12:00:29.015Z,649.00
2023-05-22T12:01:29.012Z,648.00
2023-05-22T12:02:29.145Z,648.00
2023-05-22T12:03:29.247Z,649.00
2023-05-22T12:04:29.240Z,647.00
2023-05-22T12:05:29.244Z,648.00
2023-05-22T12:06:29.379Z,648.00
2023-05-22T12:07:29.356Z,646.00
2023-05-22T12:08:29.402Z,649.00
2023-05-22T12:09:29.438Z,648.00
2023-05-22T12:10:29.507Z,646.00
2023-05-22T12:11:29.570Z,649.00
2023-05-22T12:12:29.655Z,654.00
2023-05-22T12:13:29.672Z,665.00
2023-05-22T12:14:29.823Z,665.00
2023-05-22T12:15:29.824Z,662.00
2023-05-22T12:16:29.887Z,657.00
2023-05-22T12:17:29.991Z,659.00
2023-05-22T12:18:29.980Z,656.00
2023-05-22T12:19:30.125Z,658.00